sensor_id;sensor_type;location;lat;lon;timestamp;P1;durP1;ratioP1;P2;durP2;ratioP2
14883;SDS011;7534;50.762;7.000;2023-04-07T00:01:44;17.63;;;13.13;;
14883;SDS011;7534;50.762;7.000;2023-04-07T00:04:10;14.50;;;11.70;;
14883;SDS011;7534;50.762;7.000;2023-04-07T00:06:36;15.27;;;11.47;;
14883;SDS011;7534;50.762;7.000;2023-04-07T00:09:01;17.20;;;12.40;;
14883;SDS011;7534;50.762;7.000;2023-04-07T00:11:27;16.00;;;12.43;;
14883;SDS011;7534;50.762;7.000;2023-04-07T00:13:53;17.00;;;12.00;;
14883;SDS011;7534;50.762;7.000;2023-04-07T00:16:19;17.23;;;12.33;;
14883;SDS011;7534;50.762;7.000;2023-04-07T00:18:44;17.33;;;12.50;;
14883;SDS011;7534;50.762;7.000;2023-04-07T00:21:10;16.47;;;12.53;;
14883;SDS011;7534;50.762;7.000;2023-04-07T00:23:36;15.73;;;12.30;;
14883;SDS011;7534;50.762;7.000;2023-04-07T00:26:01;15.50;;;12.00;;
14883;SDS011;7534;50.762;7.000;2023-04-07T00:28:27;16.53;;;12.63;;
14883;SDS011;7534;50.762;7.000;2023-04-07T00:30:54;16.23;;;11.90;;
14883;SDS011;7534;50.762;7.000;2023-04-07T00:33:20;14.67;;;12.27;;
14883;SDS011;7534;50.762;7.000;2023-04-07T00:35:45;14.23;;;11.90;;
14883;SDS011;7534;50.762;7.000;2023-04-07T00:38:11;14.70;;;11.97;;
14883;SDS011;7534;50.762;7.000;2023-04-07T00:40:37;15.37;;;11.63;;
14883;SDS011;7534;50.762;7.000;2023-04-07T00:43:02;16.17;;;11.63;;
14883;SDS011;7534;50.762;7.000;2023-04-07T00:45:28;15.23;;;12.20;;
14883;SDS011;7534;50.762;7.000;2023-04-07T00:47:55;17.13;;;11.83;;
14883;SDS011;7534;50.762;7.000;2023-04-07T00:50:22;14.90;;;10.97;;
14883;SDS011;7534;50.762;7.000;2023-04-07T00:52:48;13.10;;;10.70;;
14883;SDS011;7534;50.762;7.000;2023-04-07T00:55:15;13.90;;;10.47;;
14883;SDS011;7534;50.762;7.000;2023-04-07T00:57:41;14.50;;;11.60;;
14883;SDS011;7534;50.762;7.000;2023-04-07T01:00:07;13.30;;;10.60;;
14883;SDS011;7534;50.762;7.000;2023-04-07T01:05:16;14.37;;;10.07;;
14883;SDS011;7534;50.762;7.000;2023-04-07T01:10:41;14.43;;;10.00;;
14883;SDS011;7534;50.762;7.000;2023-04-07T01:16:14;11.57;;;9.27;;
14883;SDS011;7534;50.762;7.000;2023-04-07T01:18:47;12.47;;;9.87;;
14883;SDS011;7534;50.762;7.000;2023-04-07T01:21:19;13.50;;;9.90;;
14883;SDS011;7534;50.762;7.000;2023-04-07T01:27:15;13.50;;;10.63;;
14883;SDS011;7534;50.762;7.000;2023-04-07T01:29:52;13.57;;;10.90;;
14883;SDS011;7534;50.762;7.000;2023-04-07T01:32:18;14.33;;;11.13;;
14883;SDS011;7534;50.762;7.000;2023-04-07T01:34:46;15.97;;;11.87;;
14883;SDS011;7534;50.762;7.000;2023-04-07T01:37:15;16.63;;;12.03;;
14883;SDS011;7534;50.762;7.000;2023-04-07T01:39:42;14.47;;;11.90;;
14883;SDS011;7534;50.762;7.000;2023-04-07T01:42:08;16.93;;;12.43;;
14883;SDS011;7534;50.762;7.000;2023-04-07T01:44:39;16.07;;;12.50;;
14883;SDS011;7534;50.762;7.000;2023-04-07T01:47:06;16.80;;;12.00;;
14883;SDS011;7534;50.762;7.000;2023-04-07T01:49:33;19.93;;;13.27;;
14883;SDS011;7534;50.762;7.000;2023-04-07T01:52:01;20.33;;;13.83;;
14883;SDS011;7534;50.762;7.000;2023-04-07T01:54:28;22.40;;;14.93;;
14883;SDS011;7534;50.762;7.000;2023-04-07T01:56:55;18.97;;;13.67;;
14883;SDS011;7534;50.762;7.000;2023-04-07T01:59:21;22.67;;;15.23;;
14883;SDS011;7534;50.762;7.000;2023-04-07T02:01:47;22.40;;;16.67;;
14883;SDS011;7534;50.762;7.000;2023-04-07T02:07:00;22.40;;;15.73;;
14883;SDS011;7534;50.762;7.000;2023-04-07T02:09:34;24.93;;;16.87;;
14883;SDS011;7534;50.762;7.000;2023-04-07T02:12:05;24.57;;;16.57;;
14883;SDS011;7534;50.762;7.000;2023-04-07T02:14:35;28.17;;;17.70;;
14883;SDS011;7534;50.762;7.000;2023-04-07T02:17:03;24.60;;;17.80;;
14883;SDS011;7534;50.762;7.000;2023-04-07T02:19:29;28.87;;;18.13;;
14883;SDS011;7534;50.762;7.000;2023-04-07T02:21:58;29.70;;;18.93;;
14883;SDS011;7534;50.762;7.000;2023-04-07T02:24:27;28.40;;;18.43;;
14883;SDS011;7534;50.762;7.000;2023-04-07T02:26:53;33.07;;;19.30;;
14883;SDS011;7534;50.762;7.000;2023-04-07T02:29:18;29.37;;;19.40;;
14883;SDS011;7534;50.762;7.000;2023-04-07T02:31:44;31.20;;;19.50;;
14883;SDS011;7534;50.762;7.000;2023-04-07T02:34:10;35.27;;;19.77;;
14883;SDS011;7534;50.762;7.000;2023-04-07T02:36:36;34.17;;;20.37;;
14883;SDS011;7534;50.762;7.000;2023-04-07T02:39:01;36.13;;;20.40;;
14883;SDS011;7534;50.762;7.000;2023-04-07T02:41:27;36.47;;;21.30;;
14883;SDS011;7534;50.762;7.000;2023-04-07T02:43:53;37.33;;;20.57;;
14883;SDS011;7534;50.762;7.000;2023-04-07T02:46:19;36.03;;;20.93;;
14883;SDS011;7534;50.762;7.000;2023-04-07T02:48:44;37.07;;;21.70;;
14883;SDS011;7534;50.762;7.000;2023-04-07T02:51:10;38.00;;;21.23;;
14883;SDS011;7534;50.762;7.000;2023-04-07T02:53:36;38.37;;;21.47;;
14883;SDS011;7534;50.762;7.000;2023-04-07T02:56:01;40.60;;;22.43;;
14883;SDS011;7534;50.762;7.000;2023-04-07T02:58:27;42.00;;;22.67;;
14883;SDS011;7534;50.762;7.000;2023-04-07T03:00:54;41.57;;;22.37;;
14883;SDS011;7534;50.762;7.000;2023-04-07T03:03:19;41.77;;;22.00;;
14883;SDS011;7534;50.762;7.000;2023-04-07T03:05:45;39.07;;;21.90;;
14883;SDS011;7534;50.762;7.000;2023-04-07T03:08:11;45.10;;;22.73;;
14883;SDS011;7534;50.762;7.000;2023-04-07T03:10:37;41.83;;;21.93;;
14883;SDS011;7534;50.762;7.000;2023-04-07T03:13:02;44.30;;;23.30;;
14883;SDS011;7534;50.762;7.000;2023-04-07T03:15:28;44.87;;;22.83;;
14883;SDS011;7534;50.762;7.000;2023-04-07T03:17:53;45.57;;;23.63;;
14883;SDS011;7534;50.762;7.000;2023-04-07T03:20:19;43.93;;;21.60;;
14883;SDS011;7534;50.762;7.000;2023-04-07T03:22:45;44.77;;;24.20;;
14883;SDS011;7534;50.762;7.000;2023-04-07T03:25:11;46.20;;;23.53;;
14883;SDS011;7534;50.762;7.000;2023-04-07T03:27:37;45.93;;;22.73;;
14883;SDS011;7534;50.762;7.000;2023-04-07T03:30:03;50.03;;;24.57;;
14883;SDS011;7534;50.762;7.000;2023-04-07T03:32:29;48.60;;;24.80;;
14883;SDS011;7534;50.762;7.000;2023-04-07T03:35:06;49.23;;;23.53;;
14883;SDS011;7534;50.762;7.000;2023-04-07T03:37:41;43.53;;;22.60;;
14883;SDS011;7534;50.762;7.000;2023-04-07T03:40:07;47.93;;;24.10;;
14883;SDS011;7534;50.762;7.000;2023-04-07T03:42:33;47.43;;;23.57;;
14883;SDS011;7534;50.762;7.000;2023-04-07T03:44:59;48.63;;;24.27;;
14883;SDS011;7534;50.762;7.000;2023-04-07T03:47:24;48.93;;;24.23;;
14883;SDS011;7534;50.762;7.000;2023-04-07T03:49:50;50.00;;;24.47;;
14883;SDS011;7534;50.762;7.000;2023-04-07T03:52:16;48.70;;;23.30;;
14883;SDS011;7534;50.762;7.000;2023-04-07T03:54:41;47.53;;;23.10;;
14883;SDS011;7534;50.762;7.000;2023-04-07T03:57:07;53.00;;;25.30;;
14883;SDS011;7534;50.762;7.000;2023-04-07T03:59:34;50.73;;;23.83;;
14883;SDS011;7534;50.762;7.000;2023-04-07T04:02:00;46.63;;;24.17;;
14883;SDS011;7534;50.762;7.000;2023-04-07T04:04:25;50.43;;;25.17;;
14883;SDS011;7534;50.762;7.000;2023-04-07T04:06:51;47.13;;;25.13;;
14883;SDS011;7534;50.762;7.000;2023-04-07T04:09:22;49.93;;;24.87;;
14883;SDS011;7534;50.762;7.000;2023-04-07T04:11:48;50.87;;;25.23;;
14883;SDS011;7534;50.762;7.000;2023-04-07T04:14:13;53.50;;;25.90;;
14883;SDS011;7534;50.762;7.000;2023-04-07T04:16:39;52.93;;;26.03;;
14883;SDS011;7534;50.762;7.000;2023-04-07T04:19:05;54.93;;;26.83;;
14883;SDS011;7534;50.762;7.000;2023-04-07T04:21:31;53.23;;;25.13;;
14883;SDS011;7534;50.762;7.000;2023-04-07T04:23:57;50.73;;;25.87;;
14883;SDS011;7534;50.762;7.000;2023-04-07T04:26:23;53.70;;;27.30;;
14883;SDS011;7534;50.762;7.000;2023-04-07T04:28:50;54.97;;;27.53;;
14883;SDS011;7534;50.762;7.000;2023-04-07T04:31:16;55.10;;;26.27;;
14883;SDS011;7534;50.762;7.000;2023-04-07T04:33:42;56.43;;;27.30;;
14883;SDS011;7534;50.762;7.000;2023-04-07T04:36:08;52.80;;;28.53;;
14883;SDS011;7534;50.762;7.000;2023-04-07T04:38:34;55.60;;;27.90;;
14883;SDS011;7534;50.762;7.000;2023-04-07T04:41:00;56.03;;;27.80;;
14883;SDS011;7534;50.762;7.000;2023-04-07T04:43:25;54.83;;;28.30;;
14883;SDS011;7534;50.762;7.000;2023-04-07T04:45:51;57.67;;;28.23;;
14883;SDS011;7534;50.762;7.000;2023-04-07T04:48:17;56.03;;;29.40;;
14883;SDS011;7534;50.762;7.000;2023-04-07T04:50:43;54.93;;;29.40;;
14883;SDS011;7534;50.762;7.000;2023-04-07T04:53:08;56.83;;;28.57;;
14883;SDS011;7534;50.762;7.000;2023-04-07T04:55:34;54.70;;;29.27;;
14883;SDS011;7534;50.762;7.000;2023-04-07T04:58:00;55.73;;;27.97;;
14883;SDS011;7534;50.762;7.000;2023-04-07T05:00:26;60.47;;;30.33;;
14883;SDS011;7534;50.762;7.000;2023-04-07T05:02:52;63.37;;;29.83;;
14883;SDS011;7534;50.762;7.000;2023-04-07T05:05:18;61.17;;;30.40;;
14883;SDS011;7534;50.762;7.000;2023-04-07T05:07:44;60.60;;;29.80;;
14883;SDS011;7534;50.762;7.000;2023-04-07T05:10:10;52.83;;;26.97;;
14883;SDS011;7534;50.762;7.000;2023-04-07T05:12:36;55.60;;;27.47;;
14883;SDS011;7534;50.762;7.000;2023-04-07T05:15:02;62.03;;;28.63;;
14883;SDS011;7534;50.762;7.000;2023-04-07T05:17:28;54.23;;;27.10;;
14883;SDS011;7534;50.762;7.000;2023-04-07T05:19:54;54.70;;;27.13;;
14883;SDS011;7534;50.762;7.000;2023-04-07T05:22:19;48.57;;;27.77;;
14883;SDS011;7534;50.762;7.000;2023-04-07T05:24:52;55.93;;;26.63;;
14883;SDS011;7534;50.762;7.000;2023-04-07T05:27:19;56.17;;;27.90;;
14883;SDS011;7534;50.762;7.000;2023-04-07T05:29:45;53.70;;;28.00;;
14883;SDS011;7534;50.762;7.000;2023-04-07T05:32:10;52.60;;;27.00;;
14883;SDS011;7534;50.762;7.000;2023-04-07T05:34:36;53.43;;;27.43;;
14883;SDS011;7534;50.762;7.000;2023-04-07T05:37:02;52.37;;;26.30;;
14883;SDS011;7534;50.762;7.000;2023-04-07T05:39:27;51.77;;;25.57;;
14883;SDS011;7534;50.762;7.000;2023-04-07T05:41:53;48.73;;;26.00;;
14883;SDS011;7534;50.762;7.000;2023-04-07T05:44:19;49.80;;;26.20;;
14883;SDS011;7534;50.762;7.000;2023-04-07T05:46:44;52.00;;;26.30;;
14883;SDS011;7534;50.762;7.000;2023-04-07T05:49:10;50.73;;;26.73;;
14883;SDS011;7534;50.762;7.000;2023-04-07T05:51:36;50.30;;;25.97;;
14883;SDS011;7534;50.762;7.000;2023-04-07T05:54:02;46.97;;;25.73;;
14883;SDS011;7534;50.762;7.000;2023-04-07T05:56:27;49.67;;;25.83;;
14883;SDS011;7534;50.762;7.000;2023-04-07T05:58:53;45.77;;;25.00;;
14883;SDS011;7534;50.762;7.000;2023-04-07T06:01:20;51.43;;;26.07;;
14883;SDS011;7534;50.762;7.000;2023-04-07T06:03:45;49.83;;;24.33;;
14883;SDS011;7534;50.762;7.000;2023-04-07T06:06:13;45.67;;;24.33;;
14883;SDS011;7534;50.762;7.000;2023-04-07T06:08:39;47.23;;;25.17;;
14883;SDS011;7534;50.762;7.000;2023-04-07T06:11:05;45.77;;;24.63;;
14883;SDS011;7534;50.762;7.000;2023-04-07T06:13:31;46.00;;;24.10;;
14883;SDS011;7534;50.762;7.000;2023-04-07T06:15:56;49.00;;;25.10;;
14883;SDS011;7534;50.762;7.000;2023-04-07T06:18:22;45.27;;;23.77;;
14883;SDS011;7534;50.762;7.000;2023-04-07T06:20:48;47.57;;;24.50;;
14883;SDS011;7534;50.762;7.000;2023-04-07T06:23:13;43.53;;;23.03;;
14883;SDS011;7534;50.762;7.000;2023-04-07T06:25:39;48.07;;;25.60;;
14883;SDS011;7534;50.762;7.000;2023-04-07T06:28:05;41.70;;;23.20;;
14883;SDS011;7534;50.762;7.000;2023-04-07T06:30:31;45.20;;;23.57;;
14883;SDS011;7534;50.762;7.000;2023-04-07T06:32:56;44.23;;;23.73;;
14883;SDS011;7534;50.762;7.000;2023-04-07T06:35:24;48.03;;;28.75;;
14883;SDS011;7534;50.762;7.000;2023-04-07T06:37:51;54.28;;;32.97;;
14883;SDS011;7534;50.762;7.000;2023-04-07T06:40:17;43.73;;;24.13;;
14883;SDS011;7534;50.762;7.000;2023-04-07T06:42:43;38.93;;;22.70;;
14883;SDS011;7534;50.762;7.000;2023-04-07T06:45:09;34.77;;;20.73;;
14883;SDS011;7534;50.762;7.000;2023-04-07T06:47:35;39.97;;;21.00;;
14883;SDS011;7534;50.762;7.000;2023-04-07T06:50:02;32.23;;;19.33;;
14883;SDS011;7534;50.762;7.000;2023-04-07T06:52:28;38.50;;;20.30;;
14883;SDS011;7534;50.762;7.000;2023-04-07T06:54:54;33.37;;;19.33;;
14883;SDS011;7534;50.762;7.000;2023-04-07T06:57:20;34.53;;;18.87;;
14883;SDS011;7534;50.762;7.000;2023-04-07T06:59:45;35.00;;;18.23;;
14883;SDS011;7534;50.762;7.000;2023-04-07T07:02:11;32.57;;;19.10;;
14883;SDS011;7534;50.762;7.000;2023-04-07T07:04:37;35.17;;;18.93;;
14883;SDS011;7534;50.762;7.000;2023-04-07T07:07:03;33.97;;;19.13;;
14883;SDS011;7534;50.762;7.000;2023-04-07T07:09:28;31.47;;;17.93;;
14883;SDS011;7534;50.762;7.000;2023-04-07T07:11:54;34.07;;;19.03;;
14883;SDS011;7534;50.762;7.000;2023-04-07T07:14:20;32.27;;;18.33;;
14883;SDS011;7534;50.762;7.000;2023-04-07T07:16:45;29.77;;;18.00;;
14883;SDS011;7534;50.762;7.000;2023-04-07T07:19:11;28.20;;;17.37;;
14883;SDS011;7534;50.762;7.000;2023-04-07T07:21:38;29.67;;;17.53;;
14883;SDS011;7534;50.762;7.000;2023-04-07T07:24:04;28.10;;;16.77;;
14883;SDS011;7534;50.762;7.000;2023-04-07T07:26:30;31.20;;;17.20;;
14883;SDS011;7534;50.762;7.000;2023-04-07T07:28:55;26.70;;;15.63;;
14883;SDS011;7534;50.762;7.000;2023-04-07T07:31:21;27.40;;;15.53;;
14883;SDS011;7534;50.762;7.000;2023-04-07T07:33:49;25.33;;;14.20;;
14883;SDS011;7534;50.762;7.000;2023-04-07T07:36:16;21.17;;;13.37;;
14883;SDS011;7534;50.762;7.000;2023-04-07T07:38:43;22.73;;;13.33;;
14883;SDS011;7534;50.762;7.000;2023-04-07T07:41:08;20.43;;;12.27;;
14883;SDS011;7534;50.762;7.000;2023-04-07T07:43:36;19.40;;;11.63;;
14883;SDS011;7534;50.762;7.000;2023-04-07T07:46:07;15.97;;;10.10;;
14883;SDS011;7534;50.762;7.000;2023-04-07T07:48:33;16.77;;;9.87;;
14883;SDS011;7534;50.762;7.000;2023-04-07T07:50:59;17.53;;;10.57;;
14883;SDS011;7534;50.762;7.000;2023-04-07T07:53:25;14.07;;;9.63;;
14883;SDS011;7534;50.762;7.000;2023-04-07T07:55:57;14.87;;;9.20;;
14883;SDS011;7534;50.762;7.000;2023-04-07T07:58:22;14.50;;;9.13;;
14883;SDS011;7534;50.762;7.000;2023-04-07T08:00:49;14.00;;;8.30;;
14883;SDS011;7534;50.762;7.000;2023-04-07T08:03:15;13.50;;;7.73;;
14883;SDS011;7534;50.762;7.000;2023-04-07T08:05:42;12.67;;;8.03;;
14883;SDS011;7534;50.762;7.000;2023-04-07T08:08:08;11.60;;;7.63;;
14883;SDS011;7534;50.762;7.000;2023-04-07T08:10:33;10.53;;;7.10;;
14883;SDS011;7534;50.762;7.000;2023-04-07T08:13:00;12.33;;;7.87;;
14883;SDS011;7534;50.762;7.000;2023-04-07T08:15:27;11.90;;;7.23;;
14883;SDS011;7534;50.762;7.000;2023-04-07T08:17:53;10.33;;;7.30;;
14883;SDS011;7534;50.762;7.000;2023-04-07T08:20:19;9.70;;;7.20;;
14883;SDS011;7534;50.762;7.000;2023-04-07T08:22:45;9.30;;;6.70;;
14883;SDS011;7534;50.762;7.000;2023-04-07T08:25:12;9.77;;;6.73;;
14883;SDS011;7534;50.762;7.000;2023-04-07T08:27:38;8.80;;;6.30;;
14883;SDS011;7534;50.762;7.000;2023-04-07T08:30:05;12.00;;;6.80;;
14883;SDS011;7534;50.762;7.000;2023-04-07T08:32:35;11.27;;;6.47;;
14883;SDS011;7534;50.762;7.000;2023-04-07T08:35:07;10.07;;;6.17;;
14883;SDS011;7534;50.762;7.000;2023-04-07T08:37:33;10.07;;;6.10;;
14883;SDS011;7534;50.762;7.000;2023-04-07T08:40:00;8.00;;;5.73;;
14883;SDS011;7534;50.762;7.000;2023-04-07T08:42:30;8.57;;;5.80;;
14883;SDS011;7534;50.762;7.000;2023-04-07T08:45:02;8.40;;;5.00;;
14883;SDS011;7534;50.762;7.000;2023-04-07T08:47:32;7.93;;;5.30;;
14883;SDS011;7534;50.762;7.000;2023-04-07T08:50:00;6.87;;;5.23;;
14883;SDS011;7534;50.762;7.000;2023-04-07T08:52:32;7.53;;;5.50;;
14883;SDS011;7534;50.762;7.000;2023-04-07T08:55:02;5.90;;;5.03;;
14883;SDS011;7534;50.762;7.000;2023-04-07T08:57:32;7.80;;;5.70;;
14883;SDS011;7534;50.762;7.000;2023-04-07T08:59:59;8.50;;;5.57;;
14883;SDS011;7534;50.762;7.000;2023-04-07T09:02:34;8.03;;;5.50;;
14883;SDS011;7534;50.762;7.000;2023-04-07T09:05:03;8.70;;;5.43;;
14883;SDS011;7534;50.762;7.000;2023-04-07T09:07:31;7.50;;;5.63;;
14883;SDS011;7534;50.762;7.000;2023-04-07T09:09:58;9.60;;;6.10;;
14883;SDS011;7534;50.762;7.000;2023-04-07T09:12:27;6.70;;;5.50;;
14883;SDS011;7534;50.762;7.000;2023-04-07T09:14:54;7.83;;;5.90;;
14883;SDS011;7534;50.762;7.000;2023-04-07T09:17:20;9.07;;;5.67;;
14883;SDS011;7534;50.762;7.000;2023-04-07T09:19:46;8.70;;;6.10;;
14883;SDS011;7534;50.762;7.000;2023-04-07T09:22:13;8.33;;;5.70;;
14883;SDS011;7534;50.762;7.000;2023-04-07T09:24:40;7.67;;;6.30;;
14883;SDS011;7534;50.762;7.000;2023-04-07T09:27:16;8.30;;;6.30;;
14883;SDS011;7534;50.762;7.000;2023-04-07T09:29:44;9.20;;;6.03;;
14883;SDS011;7534;50.762;7.000;2023-04-07T09:32:11;8.83;;;6.13;;
14883;SDS011;7534;50.762;7.000;2023-04-07T09:35:00;9.13;;;5.97;;
14883;SDS011;7534;50.762;7.000;2023-04-07T09:37:25;8.30;;;5.77;;
14883;SDS011;7534;50.762;7.000;2023-04-07T09:39:51;8.27;;;5.87;;
14883;SDS011;7534;50.762;7.000;2023-04-07T09:42:18;7.97;;;5.60;;
14883;SDS011;7534;50.762;7.000;2023-04-07T09:44:45;8.23;;;5.77;;
14883;SDS011;7534;50.762;7.000;2023-04-07T09:47:12;7.87;;;5.90;;
14883;SDS011;7534;50.762;7.000;2023-04-07T09:49:48;6.93;;;5.43;;
14883;SDS011;7534;50.762;7.000;2023-04-07T09:52:21;8.30;;;5.73;;
14883;SDS011;7534;50.762;7.000;2023-04-07T09:55:10;8.20;;;6.70;;
14883;SDS011;7534;50.762;7.000;2023-04-07T09:57:37;7.20;;;5.83;;
14883;SDS011;7534;50.762;7.000;2023-04-07T10:00:03;7.23;;;6.03;;
14883;SDS011;7534;50.762;7.000;2023-04-07T10:02:30;8.40;;;6.00;;
14883;SDS011;7534;50.762;7.000;2023-04-07T10:04:57;7.27;;;5.90;;
14883;SDS011;7534;50.762;7.000;2023-04-07T10:07:25;6.77;;;6.07;;
14883;SDS011;7534;50.762;7.000;2023-04-07T10:09:52;7.30;;;5.97;;
14883;SDS011;7534;50.762;7.000;2023-04-07T10:12:18;7.50;;;5.90;;
14883;SDS011;7534;50.762;7.000;2023-04-07T10:14:44;7.90;;;6.33;;
14883;SDS011;7534;50.762;7.000;2023-04-07T10:17:14;7.37;;;6.20;;
14883;SDS011;7534;50.762;7.000;2023-04-07T10:19:46;7.53;;;5.70;;
14883;SDS011;7534;50.762;7.000;2023-04-07T10:22:16;8.23;;;6.17;;
14883;SDS011;7534;50.762;7.000;2023-04-07T10:24:53;7.30;;;6.37;;
14883;SDS011;7534;50.762;7.000;2023-04-07T10:27:30;7.33;;;5.77;;
14883;SDS011;7534;50.762;7.000;2023-04-07T10:30:31;7.43;;;5.87;;
14883;SDS011;7534;50.762;7.000;2023-04-07T10:32:58;7.63;;;6.27;;
14883;SDS011;7534;50.762;7.000;2023-04-07T10:35:26;10.07;;;6.87;;
14883;SDS011;7534;50.762;7.000;2023-04-07T10:38:12;8.17;;;6.47;;
14883;SDS011;7534;50.762;7.000;2023-04-07T10:40:39;9.43;;;7.03;;
14883;SDS011;7534;50.762;7.000;2023-04-07T10:43:07;8.87;;;7.37;;
14883;SDS011;7534;50.762;7.000;2023-04-07T10:48:13;9.63;;;7.67;;
14883;SDS011;7534;50.762;7.000;2023-04-07T10:50:43;12.10;;;8.27;;
14883;SDS011;7534;50.762;7.000;2023-04-07T10:53:12;11.30;;;7.37;;
14883;SDS011;7534;50.762;7.000;2023-04-07T10:55:46;11.57;;;8.13;;
14883;SDS011;7534;50.762;7.000;2023-04-07T10:58:20;10.40;;;7.83;;
14883;SDS011;7534;50.762;7.000;2023-04-07T11:03:38;10.70;;;7.77;;
14883;SDS011;7534;50.762;7.000;2023-04-07T11:06:07;10.87;;;7.57;;
14883;SDS011;7534;50.762;7.000;2023-04-07T11:08:35;13.57;;;7.87;;
14883;SDS011;7534;50.762;7.000;2023-04-07T11:11:04;9.90;;;7.80;;
14883;SDS011;7534;50.762;7.000;2023-04-07T11:13:46;8.83;;;7.37;;
14883;SDS011;7534;50.762;7.000;2023-04-07T11:16:16;12.47;;;8.07;;
14883;SDS011;7534;50.762;7.000;2023-04-07T11:18:58;10.07;;;7.73;;
14883;SDS011;7534;50.762;7.000;2023-04-07T11:21:23;10.80;;;8.17;;
14883;SDS011;7534;50.762;7.000;2023-04-07T11:23:49;12.13;;;8.43;;
14883;SDS011;7534;50.762;7.000;2023-04-07T11:26:15;11.57;;;8.73;;
14883;SDS011;7534;50.762;7.000;2023-04-07T11:28:50;11.57;;;8.43;;
14883;SDS011;7534;50.762;7.000;2023-04-07T11:31:24;13.18;;;10.30;;
14883;SDS011;7534;50.762;7.000;2023-04-07T11:33:55;12.07;;;10.57;;
14883;SDS011;7534;50.762;7.000;2023-04-07T11:36:26;10.43;;;8.27;;
14883;SDS011;7534;50.762;7.000;2023-04-07T11:39:03;10.63;;;8.17;;
14883;SDS011;7534;50.762;7.000;2023-04-07T11:41:32;13.20;;;8.70;;
14883;SDS011;7534;50.762;7.000;2023-04-07T11:44:09;13.83;;;9.83;;
14883;SDS011;7534;50.762;7.000;2023-04-07T11:46:40;13.83;;;9.93;;
14883;SDS011;7534;50.762;7.000;2023-04-07T11:49:22;14.00;;;10.70;;
14883;SDS011;7534;50.762;7.000;2023-04-07T11:51:59;14.80;;;11.63;;
14883;SDS011;7534;50.762;7.000;2023-04-07T11:57:24;19.43;;;12.63;;
14883;SDS011;7534;50.762;7.000;2023-04-07T12:00:06;18.57;;;11.20;;
14883;SDS011;7534;50.762;7.000;2023-04-07T12:02:37;18.13;;;10.90;;
14883;SDS011;7534;50.762;7.000;2023-04-07T12:05:04;15.33;;;11.43;;
14883;SDS011;7534;50.762;7.000;2023-04-07T12:07:30;14.57;;;11.07;;
14883;SDS011;7534;50.762;7.000;2023-04-07T12:12:48;18.63;;;11.90;;
14883;SDS011;7534;50.762;7.000;2023-04-07T12:15:15;17.13;;;11.60;;
14883;SDS011;7534;50.762;7.000;2023-04-07T12:17:44;18.70;;;12.00;;
14883;SDS011;7534;50.762;7.000;2023-04-07T12:20:12;19.37;;;12.47;;
14883;SDS011;7534;50.762;7.000;2023-04-07T12:22:39;17.73;;;12.57;;
14883;SDS011;7534;50.762;7.000;2023-04-07T12:25:05;21.07;;;13.03;;
14883;SDS011;7534;50.762;7.000;2023-04-07T12:27:32;19.77;;;13.37;;
14883;SDS011;7534;50.762;7.000;2023-04-07T12:29:59;17.83;;;12.90;;
14883;SDS011;7534;50.762;7.000;2023-04-07T12:32:26;17.37;;;13.07;;
14883;SDS011;7534;50.762;7.000;2023-04-07T12:34:53;15.70;;;11.97;;
14883;SDS011;7534;50.762;7.000;2023-04-07T12:39:48;15.67;;;11.40;;
14883;SDS011;7534;50.762;7.000;2023-04-07T12:42:14;14.87;;;10.87;;
14883;SDS011;7534;50.762;7.000;2023-04-07T12:44:39;15.80;;;11.03;;
14883;SDS011;7534;50.762;7.000;2023-04-07T12:47:05;17.10;;;11.37;;
14883;SDS011;7534;50.762;7.000;2023-04-07T12:49:31;14.97;;;10.90;;
14883;SDS011;7534;50.762;7.000;2023-04-07T12:51:57;17.93;;;10.70;;
14883;SDS011;7534;50.762;7.000;2023-04-07T12:54:27;15.83;;;11.53;;
14883;SDS011;7534;50.762;7.000;2023-04-07T12:56:53;14.37;;;10.70;;
14883;SDS011;7534;50.762;7.000;2023-04-07T12:59:20;16.77;;;11.20;;
14883;SDS011;7534;50.762;7.000;2023-04-07T13:01:49;16.43;;;11.37;;
14883;SDS011;7534;50.762;7.000;2023-04-07T13:04:15;16.33;;;11.23;;
14883;SDS011;7534;50.762;7.000;2023-04-07T13:06:42;15.93;;;11.10;;
14883;SDS011;7534;50.762;7.000;2023-04-07T13:09:09;15.30;;;11.30;;
14883;SDS011;7534;50.762;7.000;2023-04-07T13:11:35;14.17;;;10.57;;
14883;SDS011;7534;50.762;7.000;2023-04-07T13:14:09;15.73;;;11.03;;
14883;SDS011;7534;50.762;7.000;2023-04-07T13:16:35;15.10;;;10.50;;
14883;SDS011;7534;50.762;7.000;2023-04-07T13:19:01;16.17;;;11.00;;
14883;SDS011;7534;50.762;7.000;2023-04-07T13:21:29;17.83;;;11.47;;
14883;SDS011;7534;50.762;7.000;2023-04-07T13:23:55;16.40;;;11.83;;
14883;SDS011;7534;50.762;7.000;2023-04-07T13:26:23;16.57;;;11.77;;
14883;SDS011;7534;50.762;7.000;2023-04-07T13:28:50;17.63;;;12.17;;
14883;SDS011;7534;50.762;7.000;2023-04-07T13:31:15;17.87;;;12.03;;
14883;SDS011;7534;50.762;7.000;2023-04-07T13:33:44;18.83;;;11.93;;
14883;SDS011;7534;50.762;7.000;2023-04-07T13:36:09;17.43;;;12.47;;
14883;SDS011;7534;50.762;7.000;2023-04-07T13:38:35;19.07;;;12.50;;
14883;SDS011;7534;50.762;7.000;2023-04-07T13:41:02;18.23;;;11.77;;
14883;SDS011;7534;50.762;7.000;2023-04-07T13:43:28;18.53;;;12.17;;
14883;SDS011;7534;50.762;7.000;2023-04-07T13:45:53;16.77;;;11.57;;
14883;SDS011;7534;50.762;7.000;2023-04-07T13:48:20;18.20;;;12.67;;
14883;SDS011;7534;50.762;7.000;2023-04-07T13:50:46;17.43;;;12.30;;
14883;SDS011;7534;50.762;7.000;2023-04-07T13:53:12;17.53;;;12.20;;
14883;SDS011;7534;50.762;7.000;2023-04-07T13:55:37;16.00;;;13.53;;
14883;SDS011;7534;50.762;7.000;2023-04-07T13:58:03;17.53;;;14.43;;
14883;SDS011;7534;50.762;7.000;2023-04-07T14:00:30;18.17;;;11.83;;
14883;SDS011;7534;50.762;7.000;2023-04-07T14:02:57;14.37;;;11.17;;
14883;SDS011;7534;50.762;7.000;2023-04-07T14:05:23;14.17;;;10.80;;
14883;SDS011;7534;50.762;7.000;2023-04-07T14:07:48;17.10;;;10.97;;
14883;SDS011;7534;50.762;7.000;2023-04-07T14:10:14;13.50;;;10.73;;
14883;SDS011;7534;50.762;7.000;2023-04-07T14:12:40;14.87;;;11.33;;
14883;SDS011;7534;50.762;7.000;2023-04-07T14:15:07;13.57;;;11.33;;
14883;SDS011;7534;50.762;7.000;2023-04-07T14:17:34;16.07;;;11.87;;
14883;SDS011;7534;50.762;7.000;2023-04-07T14:20:01;16.57;;;13.00;;
14883;SDS011;7534;50.762;7.000;2023-04-07T14:22:29;16.13;;;12.57;;
14883;SDS011;7534;50.762;7.000;2023-04-07T14:24:55;36.90;;;33.37;;
14883;SDS011;7534;50.762;7.000;2023-04-07T14:27:23;135.47;;;123.73;;
14883;SDS011;7534;50.762;7.000;2023-04-07T14:29:48;18.40;;;14.20;;
14883;SDS011;7534;50.762;7.000;2023-04-07T14:32:15;19.60;;;17.60;;
14883;SDS011;7534;50.762;7.000;2023-04-07T14:34:44;16.47;;;12.00;;
14883;SDS011;7534;50.762;7.000;2023-04-07T14:37:10;18.63;;;16.47;;
14883;SDS011;7534;50.762;7.000;2023-04-07T14:39:37;13.60;;;11.07;;
14883;SDS011;7534;50.762;7.000;2023-04-07T14:42:05;13.80;;;10.70;;
14883;SDS011;7534;50.762;7.000;2023-04-07T14:44:31;14.10;;;11.20;;
14883;SDS011;7534;50.762;7.000;2023-04-07T14:46:57;12.87;;;10.47;;
14883;SDS011;7534;50.762;7.000;2023-04-07T14:49:23;12.60;;;10.80;;
14883;SDS011;7534;50.762;7.000;2023-04-07T14:51:52;13.03;;;10.17;;
14883;SDS011;7534;50.762;7.000;2023-04-07T14:54:18;11.23;;;10.00;;
14883;SDS011;7534;50.762;7.000;2023-04-07T14:56:43;14.53;;;10.17;;
14883;SDS011;7534;50.762;7.000;2023-04-07T14:59:09;14.40;;;10.57;;
14883;SDS011;7534;50.762;7.000;2023-04-07T15:01:35;14.07;;;10.67;;
14883;SDS011;7534;50.762;7.000;2023-04-07T15:04:02;16.07;;;13.13;;
14883;SDS011;7534;50.762;7.000;2023-04-07T15:06:29;14.27;;;11.40;;
14883;SDS011;7534;50.762;7.000;2023-04-07T15:08:57;17.10;;;12.13;;
14883;SDS011;7534;50.762;7.000;2023-04-07T15:11:24;16.10;;;13.00;;